createdAt,value
2023-04-12T00:02:24.009Z,99580.83
2023-04-12T00:04:55.625Z,99593.04
2023-04-12T00:07:24.991Z,99599.77
2023-04-12T00:09:53.106Z,99599.73
2023-04-12T00:12:21.012Z,99600.91
2023-04-12T00:14:48.972Z,99601.73
2023-04-12T00:17:16.718Z,99607.68
2023-04-12T00:19:45.118Z,99613.90
2023-04-12T00:22:12.900Z,99604.52
2023-04-12T00:24:41.138Z,99574.10
2023-04-12T00:27:09.336Z,99548.34
2023-04-12T00:29:37.168Z,99554.17
2023-04-12T00:32:06.014Z,99563.70
2023-04-12T00:34:33.725Z,99566.36
2023-04-12T00:37:02.262Z,99564.20
2023-04-12T00:39:30.031Z,99558.10
2023-04-12T00:41:57.909Z,99563.44
2023-04-12T00:44:25.908Z,99571.25
2023-04-12T00:46:54.443Z,99576.73
2023-04-12T00:49:22.267Z,99576.64
2023-04-12T00:51:50.009Z,99580.44
2023-04-12T00:54:18.390Z,99585.54
2023-04-12T00:56:47.362Z,99576.95
2023-04-12T00:59:15.399Z,99573.58
2023-04-12T01:01:43.121Z,99574.48
2023-04-12T01:04:14.120Z,99576.67
2023-04-12T01:06:56.203Z,99581.23
2023-04-12T01:09:36.299Z,99582.14
2023-04-12T01:12:09.145Z,99576.84
2023-04-12T01:14:58.483Z,99583.57
2023-04-12T01:17:31.408Z,99588.63
2023-04-12T01:20:16.819Z,99592.79
2023-04-12T01:22:54.855Z,99589.79
2023-04-12T01:25:44.820Z,99588.25
2023-04-12T01:28:18.973Z,99587.50
2023-04-12T01:30:49.933Z,99587.71
2023-04-12T01:33:18.965Z,99586.70
2023-04-12T01:35:48.894Z,99586.88
2023-04-12T01:38:16.810Z,99584.78
2023-04-12T01:40:44.741Z,99583.59
2023-04-12T01:43:14.809Z,99585.56
2023-04-12T01:45:42.685Z,99582.36
2023-04-12T01:48:12.183Z,99579.52
2023-04-12T01:50:53.153Z,99576.23
2023-04-12T01:53:32.929Z,99573.83
2023-04-12T01:56:07.482Z,99571.45
2023-04-12T01:58:37.597Z,99576.55
2023-04-12T02:01:07.348Z,99572.16
2023-04-12T02:03:37.563Z,99566.98
2023-04-12T02:06:06.855Z,99566.04
2023-04-12T02:08:35.692Z,99562.05
2023-04-12T02:11:10.756Z,99566.33
2023-04-12T02:13:38.632Z,99565.87
2023-04-12T02:16:08.000Z,99561.27
2023-04-12T02:18:36.031Z,99567.02
2023-04-12T02:21:03.817Z,99576.77
2023-04-12T02:23:31.525Z,99583.79
2023-04-12T02:25:59.170Z,99586.73
2023-04-12T02:28:27.196Z,99584.38
2023-04-12T02:30:55.021Z,99577.02
2023-04-12T02:33:25.460Z,99585.29
2023-04-12T02:35:53.361Z,99581.63
2023-04-12T02:38:21.081Z,99578.13
2023-04-12T02:40:48.954Z,99580.14
2023-04-12T02:43:16.734Z,99580.45
2023-04-12T02:45:44.521Z,99577.80
2023-04-12T02:48:12.468Z,99579.30
2023-04-12T02:50:40.283Z,99579.48
2023-04-12T02:53:07.996Z,99583.11
2023-04-12T02:55:36.834Z,99580.84
2023-04-12T02:58:04.673Z,99583.48
2023-04-12T03:00:32.352Z,99582.30
2023-04-12T03:03:03.058Z,99589.27
2023-04-12T03:05:31.478Z,99594.84
2023-04-12T03:07:59.268Z,99595.36
2023-04-12T03:10:27.516Z,99590.96
2023-04-12T03:12:55.295Z,99587.86
2023-04-12T03:15:23.616Z,99588.64
2023-04-12T03:17:51.783Z,99587.74
2023-04-12T03:20:20.505Z,99587.00
2023-04-12T03:22:48.327Z,99584.14
2023-04-12T03:25:18.566Z,99580.39
2023-04-12T03:27:46.784Z,99582.05
2023-04-12T03:30:14.624Z,99583.83
2023-04-12T03:32:42.666Z,99589.64
2023-04-12T03:35:10.766Z,99587.80
2023-04-12T03:37:42.716Z,99584.10
2023-04-12T03:40:11.022Z,99588.37
2023-04-12T03:42:38.799Z,99592.48
2023-04-12T03:45:06.993Z,99591.59
2023-04-12T03:47:34.955Z,99592.45
2023-04-12T03:50:11.015Z,99598.80
2023-04-12T03:52:40.228Z,99597.58
2023-04-12T03:55:08.565Z,99597.75
2023-04-12T03:57:36.425Z,99595.80
2023-04-12T04:00:04.693Z,99597.14
2023-04-12T04:02:32.553Z,99597.66
2023-04-12T04:05:02.515Z,99593.75
2023-04-12T04:07:31.995Z,99593.42
2023-04-12T04:10:00.035Z,99589.84
2023-04-12T04:12:28.264Z,99593.85
2023-04-12T04:14:56.017Z,99595.66
2023-04-12T04:17:23.815Z,99599.28
2023-04-12T04:19:51.561Z,99600.41
2023-04-12T04:22:22.944Z,99602.11
2023-04-12T04:24:51.760Z,99600.36
2023-04-12T04:27:20.589Z,99604.15
2023-04-12T04:29:48.436Z,99608.67
2023-04-12T04:32:16.112Z,99610.10
2023-04-12T04:34:44.050Z,99615.85
2023-04-12T04:37:12.508Z,99614.17
2023-04-12T04:39:40.184Z,99618.60
2023-04-12T04:42:08.065Z,99620.63
2023-04-12T04:44:36.260Z,99625.96
2023-04-12T04:47:05.230Z,99626.27
2023-04-12T04:49:33.902Z,99624.50
2023-04-12T04:52:02.374Z,99625.09
2023-04-12T04:54:31.955Z,99633.78
2023-04-12T04:56:59.691Z,99632.05
2023-04-12T04:59:27.755Z,99635.42
2023-04-12T05:01:55.667Z,99634.17
2023-04-12T05:04:23.470Z,99632.75
2023-04-12T05:06:53.791Z,99635.20
2023-04-12T05:09:45.520Z,99641.66
2023-04-12T05:12:13.313Z,99642.45
2023-04-12T05:14:47.948Z,99641.16
2023-04-12T05:17:19.233Z,99641.48
2023-04-12T05:19:46.967Z,99640.77
2023-04-12T05:22:14.881Z,99640.92
2023-04-12T05:24:42.747Z,99639.74
2023-04-12T05:27:10.602Z,99636.53
2023-04-12T05:29:38.328Z,99633.67
2023-04-12T05:32:06.432Z,99633.00
2023-04-12T05:34:34.155Z,99630.05
2023-04-12T05:37:02.440Z,99633.29
2023-04-12T05:39:31.128Z,99632.35
2023-04-12T05:41:58.918Z,99634.15
2023-04-12T05:44:26.715Z,99632.16
2023-04-12T05:46:54.556Z,99628.44
2023-04-12T05:49:22.303Z,99623.43
2023-04-12T05:51:50.117Z,99624.52
2023-04-12T05:54:21.067Z,99631.73
2023-04-12T05:56:48.881Z,99631.48
2023-04-12T05:59:19.624Z,99634.23
2023-04-12T06:01:47.464Z,99633.44
2023-04-12T06:04:15.874Z,99630.40
2023-04-12T06:06:43.997Z,99632.63
2023-04-12T06:09:12.530Z,99631.09
2023-04-12T06:11:40.275Z,99628.86
2023-04-12T06:14:10.571Z,99632.48
2023-04-12T06:16:42.915Z,99632.28
2023-04-12T06:19:12.665Z,99634.10
2023-04-12T06:21:41.144Z,99637.60
2023-04-12T06:24:09.073Z,99641.59
2023-04-12T06:26:40.108Z,99644.77
2023-04-12T06:29:08.288Z,99649.21
2023-04-12T06:33:23.522Z,99646.79
2023-04-12T06:37:24.107Z,99646.64
2023-04-12T06:40:41.020Z,99648.10
2023-04-12T06:44:51.771Z,99645.98
2023-04-12T06:48:04.175Z,99643.41
2023-04-12T07:16:18.578Z,99663.79
2023-04-12T07:23:57.437Z,99666.33
2023-04-12T07:38:26.097Z,99660.80
2023-04-12T07:41:06.467Z,99656.81
2023-04-12T07:44:47.137Z,99660.44
2023-04-12T07:59:11.925Z,99670.30
2023-04-12T08:02:12.397Z,99673.05
2023-04-12T08:16:03.711Z,99670.89
2023-04-12T08:19:01.842Z,99666.13
2023-04-12T08:32:54.821Z,99688.77
2023-04-12T08:35:40.187Z,99693.98
2023-04-12T08:58:16.863Z,99645.54
2023-04-12T09:12:18.638Z,99655.02
2023-04-12T09:15:17.780Z,99655.61
2023-04-12T09:17:45.748Z,99657.04
2023-04-12T09:20:15.711Z,99656.37
2023-04-12T09:22:48.360Z,99661.06
2023-04-12T09:25:16.110Z,99658.96
2023-04-12T09:29:27.052Z,99657.58
2023-04-12T09:32:09.186Z,99652.72
2023-04-12T09:34:39.362Z,99654.00
2023-04-12T09:37:17.193Z,99651.98
2023-04-12T09:39:44.158Z,99650.26
2023-04-12T09:42:29.247Z,99657.44
2023-04-12T09:45:22.412Z,99657.70
2023-04-12T09:47:52.877Z,99655.85
2023-04-12T09:50:33.852Z,99656.91
2023-04-12T09:53:04.301Z,99652.44
2023-04-12T09:55:32.828Z,99650.99
2023-04-12T10:06:41.565Z,99655.31
2023-04-12T10:09:08.826Z,99659.16
2023-04-12T10:11:36.925Z,99660.70
2023-04-12T10:14:05.451Z,99659.85
2023-04-12T10:16:34.419Z,99654.12
2023-04-12T10:19:05.385Z,99655.08
2023-04-12T10:21:32.477Z,99655.93
2023-04-12T10:24:02.656Z,99651.37
2023-04-12T10:26:30.966Z,99651.02
2023-04-12T10:29:26.013Z,99653.52
2023-04-12T10:36:19.456Z,99653.00
2023-04-12T10:40:38.904Z,99647.90
2023-04-12T10:43:19.859Z,99648.02
2023-04-12T10:45:50.307Z,99648.11
2023-04-12T10:48:33.455Z,99649.73
2023-04-12T10:51:18.479Z,99648.77
2023-04-12T10:53:47.542Z,99646.73
2023-04-12T10:56:48.528Z,99644.17
2023-04-12T10:59:17.262Z,99644.86
2023-04-12T11:02:17.952Z,99644.05
2023-04-12T11:05:10.241Z,99643.13
2023-04-12T11:07:46.316Z,99645.90
2023-04-12T11:10:21.775Z,99643.73
2023-04-12T11:12:57.362Z,99640.17
2023-04-12T11:15:29.030Z,99635.98
2023-04-12T11:17:57.902Z,99640.19
2023-04-12T11:20:27.672Z,99632.79
2023-04-12T11:22:56.073Z,99628.81
2023-04-12T11:25:24.441Z,99627.90
2023-04-12T11:27:54.997Z,99635.26
2023-04-12T11:30:25.601Z,99625.66
2023-04-12T11:32:53.375Z,99626.09
2023-04-12T11:35:27.393Z,99620.47
2023-04-12T11:37:57.508Z,99614.71
2023-04-12T11:40:26.227Z,99615.80
2023-04-12T11:42:57.019Z,99612.11
2023-04-12T11:45:24.955Z,99617.40
2023-04-12T11:47:55.019Z,99608.96
2023-04-12T11:50:30.925Z,99612.61
2023-04-12T11:53:10.969Z,99610.73
2023-04-12T11:55:38.990Z,99604.84
2023-04-12T11:58:07.390Z,99600.16
2023-04-12T12:00:35.645Z,99602.59
2023-04-12T12:03:07.762Z,99597.58
2023-04-12T12:05:38.479Z,99592.41
2023-04-12T12:08:08.726Z,99597.77
2023-04-12T12:10:49.242Z,99590.27
2023-04-12T12:13:23.795Z,99588.77
2023-04-12T12:15:52.739Z,99585.48
2023-04-12T12:18:26.400Z,99581.94
2023-04-12T12:20:55.844Z,99586.70
2023-04-12T12:23:48.944Z,99584.73
2023-04-12T12:26:28.094Z,99580.96
2023-04-12T12:29:00.669Z,99572.30
2023-04-12T12:31:29.050Z,99563.14
2023-04-12T12:33:59.334Z,99565.59
2023-04-12T12:36:36.210Z,99561.45
2023-04-12T12:39:10.819Z,99555.41
2023-04-12T12:41:40.129Z,99554.43
2023-04-12T12:44:09.068Z,99552.27
2023-04-12T12:49:08.302Z,99545.66
2023-04-12T12:51:36.606Z,99547.52
2023-04-12T12:54:04.491Z,99546.90
2023-04-12T12:56:32.740Z,99545.27
2023-04-12T12:59:01.021Z,99538.02
2023-04-12T13:01:31.529Z,99537.70
2023-04-12T13:04:01.404Z,99535.27
2023-04-12T13:06:29.618Z,99530.25
2023-04-12T13:09:06.122Z,99525.29
2023-04-12T13:11:34.255Z,99522.27
2023-04-12T13:14:05.436Z,99526.04
2023-04-12T13:18:26.985Z,99517.84
2023-04-12T13:22:19.266Z,99521.23
2023-04-12T13:25:44.385Z,99522.64
2023-04-12T13:28:12.934Z,99517.51
2023-04-12T13:30:42.083Z,99518.73
2023-04-12T13:33:13.027Z,99511.15
2023-04-12T13:35:45.440Z,99507.80
2023-04-12T13:38:14.987Z,99506.95
2023-04-12T13:40:43.118Z,99507.16
2023-04-12T13:43:12.850Z,99507.39
2023-04-12T13:45:41.031Z,99508.84
2023-04-12T13:48:09.978Z,99505.56
2023-04-12T13:50:38.190Z,99501.19
2023-04-12T13:53:06.342Z,99499.58
2023-04-12T13:55:34.231Z,99495.99
2023-04-12T13:58:02.096Z,99494.25
2023-04-12T14:01:10.988Z,99495.96
2023-04-12T14:03:39.895Z,99488.73
2023-04-12T14:06:07.992Z,99489.84
2023-04-12T14:12:57.012Z,99478.45
2023-04-12T14:21:07.492Z,99483.95
2023-04-12T14:24:50.061Z,99487.50
2023-04-12T14:39:30.794Z,99489.60
2023-04-12T14:52:34.935Z,99493.69
2023-04-12T14:55:27.664Z,99486.05
2023-04-12T14:59:29.808Z,99488.76
2023-04-12T15:03:00.177Z,99484.86
2023-04-12T15:06:16.437Z,99479.72
2023-04-12T15:09:58.700Z,99476.01
2023-04-12T15:13:34.470Z,99474.58
2023-04-12T15:17:21.145Z,99478.98
2023-04-12T15:20:53.660Z,99481.00
2023-04-12T15:24:31.134Z,99474.08
2023-04-12T15:28:17.497Z,99465.98
2023-04-12T15:31:42.857Z,99461.79
2023-04-12T15:34:11.815Z,99464.34
2023-04-12T15:36:43.822Z,99462.69
2023-04-12T15:39:12.731Z,99464.83
2023-04-12T15:41:42.418Z,99460.87
2023-04-12T15:47:03.156Z,99457.58
2023-04-12T15:49:42.173Z,99452.42
2023-04-12T15:52:10.264Z,99452.20
2023-04-12T15:54:43.570Z,99448.60
2023-04-12T15:57:12.091Z,99454.39
2023-04-12T15:59:42.301Z,99454.13
2023-04-12T16:02:10.614Z,99452.45
2023-04-12T16:04:39.601Z,99457.17
2023-04-12T16:07:08.202Z,99462.52
2023-04-12T16:10:50.829Z,99459.95
2023-04-12T16:13:18.893Z,99459.23
2023-04-12T16:15:47.624Z,99457.86
2023-04-12T16:18:17.212Z,99451.62
2023-04-12T16:20:45.450Z,99448.21
2023-04-12T16:23:13.590Z,99447.48
2023-04-12T16:25:41.633Z,99446.19
2023-04-12T16:28:09.499Z,99447.63
2023-04-12T16:30:37.672Z,99443.01
2023-04-12T16:33:05.584Z,99441.00
2023-04-12T16:35:33.415Z,99439.85
2023-04-12T16:38:02.232Z,99437.59
2023-04-12T16:40:29.991Z,99445.19
2023-04-12T16:45:04.614Z,99441.20
2023-04-12T16:47:32.434Z,99441.52
2023-04-12T16:50:00.298Z,99446.71
2023-04-12T16:52:28.204Z,99446.41
2023-04-12T16:54:57.263Z,99445.83
2023-04-12T16:57:25.097Z,99445.10
2023-04-12T17:00:23.244Z,99447.36
2023-04-12T17:02:53.438Z,99450.85
2023-04-12T17:05:22.995Z,99450.57
2023-04-12T17:07:54.028Z,99448.41
2023-04-12T17:10:24.557Z,99453.23
2023-04-12T17:12:55.452Z,99454.50
2023-04-12T17:15:25.415Z,99456.21
2023-04-12T17:27:02.929Z,99460.38
2023-04-12T17:29:32.373Z,99461.84
2023-04-12T17:32:26.094Z,99463.16
2023-04-12T17:34:57.187Z,99462.41
2023-04-12T17:37:26.224Z,99465.54
2023-04-12T17:39:54.301Z,99464.35
2023-04-12T17:42:23.129Z,99468.21
2023-04-12T17:44:51.396Z,99470.36
2023-04-12T17:47:19.833Z,99472.37
2023-04-12T17:52:17.330Z,99471.77
2023-04-12T17:55:55.159Z,99473.20
2023-04-12T17:59:53.714Z,99477.19
2023-04-12T18:02:20.805Z,99477.13
2023-04-12T18:04:48.049Z,99477.98
2023-04-12T18:07:15.942Z,99481.45
2023-04-12T18:09:44.024Z,99483.85
2023-04-12T18:12:13.688Z,99488.06
2023-04-12T18:14:40.507Z,99489.34
2023-04-12T18:17:07.892Z,99494.63
2023-04-12T18:19:34.449Z,99492.66
2023-04-12T18:22:01.123Z,99489.30
2023-04-12T18:24:30.517Z,99489.09
2023-04-12T18:26:58.649Z,99488.48
2023-04-12T18:29:25.582Z,99494.34
2023-04-12T18:31:52.498Z,99490.66
2023-04-12T18:34:19.221Z,99491.48
2023-04-12T18:36:45.759Z,99492.19
2023-04-12T18:39:14.166Z,99492.73
2023-04-12T18:41:41.726Z,99496.22
2023-04-12T18:44:09.008Z,99497.77
2023-04-12T18:46:36.049Z,99498.70
2023-04-12T18:49:04.628Z,99501.70
2023-04-12T18:51:32.518Z,99501.05
2023-04-12T18:57:00.117Z,99501.31
2023-04-12T18:59:26.879Z,99496.77
2023-04-12T19:01:53.848Z,99492.52
2023-04-12T19:04:21.137Z,99490.45
2023-04-12T19:06:47.626Z,99489.51
2023-04-12T19:10:30.733Z,99496.38
2023-04-12T19:12:59.609Z,99498.38
2023-04-12T19:15:27.643Z,99498.24
2023-04-12T19:17:56.109Z,99496.64
2023-04-12T19:20:23.922Z,99499.18
2023-04-12T19:22:52.724Z,99497.10
2023-04-12T19:25:20.987Z,99492.86
2023-04-12T19:27:48.810Z,99489.73
2023-04-12T19:30:17.187Z,99482.35
2023-04-12T19:32:45.014Z,99479.01
2023-04-12T19:35:14.970Z,99481.80
2023-04-12T19:37:42.757Z,99479.83
2023-04-12T19:40:12.538Z,99479.09
2023-04-12T19:42:41.649Z,99476.36
2023-04-12T19:45:09.825Z,99474.45
2023-04-12T19:47:44.685Z,99473.23
2023-04-12T19:50:19.691Z,99469.73
2023-04-12T19:52:48.690Z,99463.92
2023-04-12T19:55:16.832Z,99459.54
2023-04-12T19:57:45.123Z,99455.21
2023-04-12T20:00:19.573Z,99458.34
2023-04-12T20:02:49.244Z,99461.05
2023-04-12T20:05:17.962Z,99460.12
2023-04-12T20:07:45.921Z,99459.21
2023-04-12T20:10:15.352Z,99457.79
2023-04-12T20:12:43.267Z,99450.39
2023-04-12T20:15:14.596Z,99450.94
2023-04-12T20:17:43.107Z,99448.30
2023-04-12T20:20:12.583Z,99446.30
2023-04-12T20:22:42.906Z,99442.73
2023-04-12T20:25:11.414Z,99441.95
2023-04-12T20:27:39.366Z,99442.71
2023-04-12T20:30:09.527Z,99446.27
2023-04-12T20:32:37.535Z,99444.25
2023-04-12T20:35:06.678Z,99440.46
2023-04-12T20:37:36.525Z,99439.22
2023-04-12T20:40:07.231Z,99438.52
2023-04-12T20:42:35.605Z,99433.08
2023-04-12T20:45:03.657Z,99433.55
2023-04-12T20:47:33.273Z,99430.63
2023-04-12T20:50:03.752Z,99425.80
2023-04-12T20:52:31.815Z,99422.55
2023-04-12T20:54:59.791Z,99417.95
2023-04-12T20:57:27.818Z,99414.02
2023-04-12T20:59:57.350Z,99418.05
2023-04-12T21:02:25.688Z,99416.48
2023-04-12T21:04:54.120Z,99419.43
2023-04-12T21:07:25.982Z,99418.39
2023-04-12T21:09:53.851Z,99415.30
2023-04-12T21:12:21.682Z,99414.37
2023-04-12T21:14:50.428Z,99408.42
2023-04-12T21:17:22.516Z,99408.13
2023-04-12T21:19:51.093Z,99404.87
2023-04-12T21:22:18.719Z,99403.46
2023-04-12T21:24:46.518Z,99404.58
2023-04-12T21:27:14.536Z,99405.57
2023-04-12T21:29:42.312Z,99405.80
2023-04-12T21:32:10.149Z,99404.09
2023-04-12T21:34:39.281Z,99403.15
2023-04-12T21:37:07.689Z,99399.98
2023-04-12T21:39:35.463Z,99401.03
2023-04-12T21:42:03.352Z,99399.63
2023-04-12T21:44:34.469Z,99401.88
2023-04-12T21:47:02.158Z,99402.06
2023-04-12T21:49:30.807Z,99400.38
2023-04-12T21:51:59.232Z,99405.77
2023-04-12T21:54:31.387Z,99403.88
2023-04-12T21:56:58.945Z,99405.69
2023-04-12T21:59:26.645Z,99407.67
2023-04-12T22:01:54.411Z,99409.05
2023-04-12T22:04:22.189Z,99408.00
2023-04-12T22:06:51.723Z,99409.39
2023-04-12T22:09:20.365Z,99405.00
2023-04-12T22:11:49.182Z,99402.95
2023-04-12T22:14:16.956Z,99402.08
2023-04-12T22:16:45.399Z,99397.86
2023-04-12T22:19:13.232Z,99393.34
2023-04-12T22:21:41.474Z,99392.47
2023-04-12T22:24:09.214Z,99393.97
2023-04-12T22:26:36.921Z,99395.95
2023-04-12T22:29:06.274Z,99392.37
2023-04-12T22:31:34.703Z,99389.85
2023-04-12T22:34:02.434Z,99384.59
2023-04-12T22:36:37.124Z,99384.79
2023-04-12T22:39:04.865Z,99381.67
2023-04-12T22:41:35.110Z,99375.73
2023-04-12T22:44:03.042Z,99372.61
2023-04-12T22:46:33.503Z,99373.14
2023-04-12T22:49:01.222Z,99365.89
2023-04-12T22:51:29.095Z,99361.06
2023-04-12T22:53:57.114Z,99356.48
2023-04-12T22:56:25.899Z,99355.75
2023-04-12T22:58:53.883Z,99348.90
2023-04-12T23:01:21.626Z,99343.35
2023-04-12T23:03:49.317Z,99339.80
2023-04-12T23:06:17.056Z,99334.54
2023-04-12T23:08:44.923Z,99333.67
2023-04-12T23:11:14.401Z,99330.91
2023-04-12T23:13:42.076Z,99336.67
2023-04-12T23:16:10.099Z,99332.16
2023-04-12T23:18:38.843Z,99333.66
2023-04-12T23:21:06.940Z,99329.77
2023-04-12T23:23:34.561Z,99326.40
2023-04-12T23:26:02.687Z,99325.81
2023-04-12T23:28:31.021Z,99325.30
2023-04-12T23:31:01.746Z,99320.45
2023-04-12T23:33:29.338Z,99318.92
2023-04-12T23:35:57.167Z,99316.09
2023-04-12T23:38:31.916Z,99314.61
2023-04-12T23:41:02.556Z,99308.23
2023-04-12T23:43:32.569Z,99308.56
2023-04-12T23:46:02.124Z,99305.02
2023-04-12T23:48:30.464Z,99304.81
2023-04-12T23:50:59.910Z,99297.86
2023-04-12T23:53:27.603Z,99291.44
2023-04-12T23:55:55.461Z,99286.96
2023-04-12T23:58:23.425Z,99286.95
